A- A+ FrançaisEnglishEspañol中国

Services sur Internet Soldes sur Internet Des idées de cadeaux Météo Météo aéro

La météo à : Autours de vous Tarbes-Lourdes-PyrénéesCherbourg-Maupertus Le-Havre-OctevilleAvignon Pujaut

La météo aéronautique pour les pilotes, la préparation du vol avec les METAR (METeorological Aerodrome Report, message d'observation des conditions météorologiques pour l'aviation) et Les TAF (Terminal Aerodrome Forecast : message de prévision à court terme des conditions météorologiques pour l'aviation). Et les autres ressources comme les VAC (Visual Approch Chart) et les NOTAM (Notice To Airman) pour préprer les vols.

Aéroport Schleswig (Allemagne) / OACI ETNS/ IATA WBG

L'altitude de l'aéroport Schleswig est de 21 m = 69 ft. Il est situé à proximité de Jagel (Allemagne). La météo générale à 5 jours est disponible pour Jagel situé à 1.6 km.

METAR de l'aéroport Schleswig - ETNS

ETNS 091820Z 31014KT 9999 FEW130 05/01 Q1002 BLU+BLU+

Décodage du METAR de l'aéroport Schleswig (DE)

METAR émis par ETNS le lundi 9 décembre 2019 à 18:20 heure TU, il y a 44 minutes.

La visibilité est de supérieure à 10 km = supérieure à 6.2 sm.

La température est de 5°C = 41 °F et le point rosée est de 1°C = 34 °F . Ce qui correspond à 75% d'humidité relative.

Le QNH est de 1002 hPa = 29.59 inHg

Vent de 14 kt = 26 km/h, orienté à 310°.

Nuages : Quelques nuages à 13000 ft = 3960 mètres.

BLU+BLU+

TAF de l'aéroport Schleswig - ETNS

ETNS 300825Z 3009/3018 20005KT 9999 NSW FEW030 BY ETGL

ETNS 300825Z 3009/3018 20005KT 9999 NSW quelques nuages à 030 BY ETGL

Aéroport à proximité de Schleswig

Météo générale à 5 jours à Jagel (1.6 km)Aéroport Schleswig Kropp (4 km)Aéroport Hohn (16 km)Aéroport Rendsburg Schachtholm (27 km)Aéroport Flensburg Schaeferhaus (36 km)Aéroport Kiel Holtenau (42 km)Aéroport Krusa Padborg (48 km)

Vue aérienne de l'aéroport Schleswig

NOTAM de l'aéroport Schleswig

Les NOTAM sont fournis sans aucune garantie de leur actualité. Le pilote est le seul responsable de la vérification de sa validité avant de l'utiliser opérationnellement pour préparer un vol ou l'utiliser lors de sa navigation.

Pas de NOTAM

Sources des données